General Aviation Weather

Text Reports

Enter one or more of the following location identifiers separated by a space:

Zip Code, Four-Character ICAO or Three-Character IATA airport codes.

METAR - Aviation Routine Weather Report
KIXA - Roanoke Rapids, North Carolina
Updated at 7:15 AM GMT on May 04, 2015 (3:15 AM EDT):
METAR KIXA 040715Z AUTO 00000KT 10SM SCT090 11/09 A3024 RMK AO2
TAF - Terminal Area Forecast
KIXA - Roanoke Rapids, North Carolina
Updated at 7:15 AM GMT on May 04, 2015 (3:15 AM EDT):
No TAF is currently available for this location.
Decoded:
No decoded TAF is available.
PIREP - Pilot Weather Report
KIXA - Roanoke Rapids, North Carolina
Updated at 7:15 AM GMT on May 04, 2015 (3:15 AM EDT):
No PIREP is currently available for this location.
AIRMET - Airmens Meteorological Information
KIXA - Roanoke Rapids, North Carolina
Updated at 7:15 AM GMT on May 04, 2015 (3:15 AM EDT):
No AIRMET is currently available for this location.
SIGMET - Significant Meteorological Information
KIXA - Roanoke Rapids, North Carolina
Updated at 7:15 AM GMT on May 04, 2015 (3:15 AM EDT):
No SIGMET is currently available for this location.
NOTAM - Notice to Airmen
KIXA - Roanoke Rapids, North Carolina
Updated at 7:15 AM GMT on May 04, 2015 (3:15 AM EDT):
No NOTAM is currently available for this location.
Forecast Area
KIXA - Roanoke Rapids, North Carolina
Updated at 7:15 AM GMT on May 04, 2015 (3:15 AM EDT):
No NOTAM is currently available for this location.
Aviation Weather Maps